Portada
METAR-TAF:

METAR-TAF

Aeroports :

Kuusamo, Finlàndia

latitud: 65-58N, longitud: 029-11E, altitud: 262 m

Observació

L'informe es va fer fa 43 minuts, a les 11:20 UTC
Vent 5 kt del Oest/Sud-Oest, variant entre Sud i Oest/Nord-Oest
Temperatura 14°C
Humitat 58%
Pressió 1012 hPa
Visibilitat 10 km o més
Escasses núvols a una alçada de 4200 ft
Núvols disperses a una alçada de 7400 ft

METAR: EFKS 161120Z 24005KT 170V300 9999 FEW042 SCT074 14/06 Q1012

Hora: 15:03 (12:03 UTC)

Pronòstic

L'informe es va fer fa 3 hores i 43 minuts, a les 08:20 UTC
Pronòstic vàlid del 16 a les 09 UTC al 16 a les 13 UTC
Vent 6 kt del Est/Nord-Est
Visibilitat 10 km o més
Núvols disperses a una alçada de 2500 ft
Temporalment
l' 16 a les 09 UTC al 16 a les 13 UTC
Visibilitat: 7000 m
Cel ennuvolat a una alçada de 2500 ft, Cumulonimbus.
xàfecs de pluja

TAF: EFKS 160820Z 1609/1613 06006KT 9999 SCT025 TEMPO 1609/1613 7000 -SHRA BKN025CB

Observacions i pronòstics meteorològics de més de 4000 aeroports (METAR i TAF).

Les estacions disponibles són els punts grocs i vermells al mapa.

Posi el ratolí al punt desitjat per veure el nom de l'estació.

Feu clic per veure les observacions i els pronòstics meteorològics.

Per canviar el mapa: feu clic els botons verds amb una creu de color negre per apropar; al botó verd amb un guió per allunyar la imatge; o en les fletxes verdes per a mapes adjacents.


METAR-TAF: